createdAt,value
2022-08-01T00:00:47.887Z,23.89
2022-08-01T00:03:16.710Z,23.76
2022-08-01T00:05:45.450Z,23.63
2022-08-01T00:08:12.924Z,23.59
2022-08-01T00:10:40.649Z,23.12
2022-08-01T00:13:08.133Z,22.83
2022-08-01T00:15:38.148Z,22.68
2022-08-01T00:18:05.612Z,22.82
2022-08-01T00:20:34.420Z,22.83
2022-08-01T00:23:04.867Z,22.78
2022-08-01T00:25:33.771Z,22.76
2022-08-01T00:28:02.023Z,22.84
2022-08-01T00:30:29.508Z,22.70
2022-08-01T00:32:57.008Z,22.72
2022-08-01T00:35:24.478Z,22.73
2022-08-01T00:37:53.516Z,22.86
2022-08-01T00:40:20.998Z,22.86
2022-08-01T00:42:48.587Z,22.98
2022-08-01T00:45:16.187Z,22.86
2022-08-01T00:47:43.853Z,23.10
2022-08-01T00:50:12.664Z,23.17
2022-08-01T00:52:41.783Z,22.96
2022-08-01T00:55:14.921Z,23.12
2022-08-01T00:58:03.323Z,22.56
2022-08-01T01:00:30.446Z,21.77
2022-08-01T01:03:00.333Z,21.36
2022-08-01T01:05:27.849Z,21.32
2022-08-01T01:08:00.456Z,21.19
2022-08-01T01:10:38.811Z,21.45
2022-08-01T01:13:09.420Z,21.35
2022-08-01T01:15:43.447Z,21.60
2022-08-01T01:18:14.620Z,21.73
2022-08-01T01:20:45.423Z,21.63
2022-08-01T01:23:28.941Z,21.28
2022-08-01T01:26:14.908Z,21.10
2022-08-01T01:29:02.006Z,21.11
2022-08-01T01:31:33.961Z,21.21
2022-08-01T01:34:03.372Z,21.16
2022-08-01T01:36:33.075Z,21.29
2022-08-01T01:39:02.708Z,21.30
2022-08-01T01:41:32.211Z,21.34
2022-08-01T01:44:02.294Z,21.36
2022-08-01T01:46:33.242Z,21.24
2022-08-01T01:49:02.614Z,21.28
2022-08-01T01:51:31.559Z,21.33
2022-08-01T01:54:01.382Z,21.26
2022-08-01T01:56:31.744Z,21.33
2022-08-01T01:59:02.891Z,21.32
2022-08-01T02:02:05.161Z,21.38
2022-08-01T02:04:23.655Z,21.44
2022-08-01T02:06:54.517Z,21.47
2022-08-01T02:09:23.358Z,21.47
2022-08-01T02:12:08.239Z,21.48
2022-08-01T02:14:37.710Z,21.44
2022-08-01T02:17:07.001Z,21.48
2022-08-01T02:19:38.228Z,21.42
2022-08-01T02:22:09.803Z,21.39
2022-08-01T02:24:40.783Z,21.32
2022-08-01T02:27:11.097Z,21.28
2022-08-01T02:29:41.753Z,21.20
2022-08-01T02:32:15.114Z,21.18
2022-08-01T02:34:46.051Z,21.10
2022-08-01T02:37:13.748Z,21.13
2022-08-01T02:39:42.363Z,21.08
2022-08-01T02:42:13.311Z,21.00
2022-08-01T02:44:45.393Z,21.05
2022-08-01T02:47:14.500Z,21.15
2022-08-01T02:49:46.285Z,21.01
2022-08-01T02:52:16.467Z,20.91
2022-08-01T02:54:46.669Z,20.92
2022-08-01T02:57:16.800Z,20.85
2022-08-01T02:59:48.701Z,20.85
2022-08-01T03:02:19.211Z,20.89
2022-08-01T03:04:47.993Z,20.90
2022-08-01T03:07:17.272Z,20.90
2022-08-01T03:09:48.294Z,20.84
2022-08-01T03:12:19.767Z,20.88
2022-08-01T03:14:50.354Z,20.90
2022-08-01T03:17:22.533Z,20.90
2022-08-01T03:19:51.355Z,20.85
2022-08-01T03:22:20.370Z,20.94
2022-08-01T03:24:51.633Z,20.85
2022-08-01T03:27:21.264Z,20.89
2022-08-01T03:29:50.285Z,20.85
2022-08-01T03:32:21.626Z,20.76
2022-08-01T03:34:49.408Z,20.70
2022-08-01T03:37:23.424Z,20.72
2022-08-01T03:39:54.018Z,20.56
2022-08-01T03:42:25.354Z,20.62
2022-08-01T03:44:56.604Z,20.51
2022-08-01T03:47:31.075Z,20.47
2022-08-01T03:50:00.239Z,20.50
2022-08-01T03:52:31.436Z,20.54
2022-08-01T03:55:01.194Z,20.48
2022-08-01T03:57:36.142Z,20.54
2022-08-01T04:00:07.698Z,20.53
2022-08-01T04:02:37.265Z,20.55
2022-08-01T04:05:05.775Z,20.49
2022-08-01T04:07:36.704Z,20.54
2022-08-01T04:10:04.977Z,20.62
2022-08-01T04:12:33.565Z,20.88
2022-08-01T04:15:01.068Z,20.99
2022-08-01T04:17:28.609Z,20.99
2022-08-01T04:19:57.395Z,21.19
2022-08-01T04:22:24.862Z,21.05
2022-08-01T04:24:57.458Z,21.57
2022-08-01T04:27:50.272Z,21.48
2022-08-01T04:30:20.914Z,21.05
2022-08-01T04:32:50.737Z,20.88
2022-08-01T04:35:23.225Z,20.73
2022-08-01T04:38:10.813Z,20.75
2022-08-01T04:40:39.575Z,20.77
2022-08-01T04:43:07.206Z,20.73
2022-08-01T04:45:36.174Z,20.82
2022-08-01T04:48:07.422Z,20.68
2022-08-01T04:50:37.505Z,21.03
2022-08-01T04:53:05.093Z,21.29
2022-08-01T04:55:32.841Z,21.96
2022-08-01T04:58:00.498Z,22.74
2022-08-01T05:00:29.412Z,22.58
2022-08-01T05:02:58.494Z,22.88
2022-08-01T05:05:27.141Z,23.46
2022-08-01T05:07:56.753Z,23.25
2022-08-01T05:10:24.296Z,22.67
2022-08-01T05:12:51.800Z,22.04
2022-08-01T05:15:19.558Z,21.90
2022-08-01T05:17:47.757Z,21.96
2022-08-01T05:20:15.612Z,21.83
2022-08-01T05:22:43.641Z,21.39
2022-08-01T05:25:13.375Z,21.55
2022-08-01T05:27:47.528Z,21.63
2022-08-01T05:30:16.762Z,21.45
2022-08-01T05:32:44.292Z,21.76
2022-08-01T05:35:12.040Z,21.66
2022-08-01T05:37:39.592Z,21.61
2022-08-01T05:40:07.959Z,21.78
2022-08-01T05:42:36.904Z,22.02
2022-08-01T05:45:04.944Z,22.67
2022-08-01T05:47:32.437Z,22.71
2022-08-01T05:49:59.919Z,23.50
2022-08-01T05:52:27.793Z,23.69
2022-08-01T05:54:55.287Z,24.97
2022-08-01T05:57:22.788Z,25.14
2022-08-01T05:59:51.655Z,24.88
2022-08-01T06:02:19.204Z,25.44
2022-08-01T06:04:46.760Z,25.17
2022-08-01T06:07:14.234Z,25.76
2022-08-01T06:09:41.726Z,25.60
2022-08-01T06:12:09.493Z,24.93
2022-08-01T06:14:37.014Z,24.45
2022-08-01T06:17:05.864Z,24.56
2022-08-01T06:19:33.373Z,24.83
2022-08-01T06:22:00.875Z,25.38
2022-08-01T06:24:28.514Z,26.17
2022-08-01T06:26:56.015Z,27.39
2022-08-01T06:29:23.677Z,26.83
2022-08-01T06:31:51.155Z,27.41
2022-08-01T06:34:20.157Z,25.99
2022-08-01T06:36:47.650Z,24.80
2022-08-01T06:39:15.153Z,25.09
2022-08-01T06:41:43.101Z,24.60
2022-08-01T06:44:10.592Z,25.36
2022-08-01T06:46:38.083Z,25.12
2022-08-01T06:49:05.682Z,26.21
2022-08-01T06:51:34.588Z,25.06
2022-08-01T06:54:02.106Z,26.21
2022-08-01T06:56:29.993Z,26.60
2022-08-01T06:59:01.706Z,25.60
2022-08-01T07:01:29.558Z,24.91
2022-08-01T07:03:57.270Z,24.10
2022-08-01T07:06:25.427Z,24.07
2022-08-01T07:08:55.187Z,25.72
2022-08-01T07:11:24.330Z,27.11
2022-08-01T07:13:51.967Z,27.22
2022-08-01T07:16:19.526Z,25.60
2022-08-01T07:18:47.293Z,24.79
2022-08-01T07:21:18.539Z,24.04
2022-08-01T07:24:13.094Z,23.39
2022-08-01T07:26:53.571Z,24.20
2022-08-01T07:29:22.848Z,25.47
2022-08-01T07:31:50.336Z,25.15
2022-08-01T07:34:17.868Z,24.65
2022-08-01T07:36:46.461Z,25.47
2022-08-01T07:39:15.284Z,24.50
2022-08-01T07:41:53.340Z,25.02
2022-08-01T07:44:30.203Z,25.58
2022-08-01T07:46:57.679Z,25.53
2022-08-01T07:49:25.181Z,25.76
2022-08-01T07:52:03.339Z,25.41
2022-08-01T07:54:34.386Z,25.55
2022-08-01T07:57:02.598Z,25.73
2022-08-01T07:59:30.218Z,25.83
2022-08-01T08:01:57.758Z,25.27
2022-08-01T08:04:25.335Z,25.10
2022-08-01T08:06:54.289Z,24.69
2022-08-01T08:09:21.805Z,25.47
2022-08-01T08:11:51.086Z,24.58
2022-08-01T08:14:19.523Z,25.02
2022-08-01T08:16:47.308Z,25.67
2022-08-01T08:19:15.234Z,26.16
2022-08-01T08:21:43.428Z,25.85
2022-08-01T08:24:26.525Z,25.00
2022-08-01T08:26:59.065Z,27.15
2022-08-01T08:29:27.460Z,27.68
2022-08-01T08:31:57.156Z,26.90
2022-08-01T08:34:25.565Z,26.70
2022-08-01T08:36:53.978Z,28.11
2022-08-01T08:39:22.224Z,27.63
2022-08-01T08:41:50.219Z,26.19
2022-08-01T08:44:20.958Z,25.27
2022-08-01T08:46:50.056Z,25.13
2022-08-01T08:49:20.501Z,25.31
2022-08-01T08:51:50.467Z,26.07
2022-08-01T08:54:20.622Z,26.21
2022-08-01T08:56:49.155Z,28.23
2022-08-01T08:59:16.850Z,28.42
2022-08-01T09:01:45.675Z,29.16
2022-08-01T09:04:13.338Z,28.54
2022-08-01T09:06:41.701Z,28.34
2022-08-01T09:09:10.502Z,28.60
2022-08-01T09:11:38.887Z,27.85
2022-08-01T09:14:10.159Z,27.15
2022-08-01T09:16:47.970Z,27.35
2022-08-01T09:19:40.082Z,27.83
2022-08-01T09:22:09.965Z,25.98
2022-08-01T09:24:38.783Z,26.17
2022-08-01T09:27:21.758Z,26.05
2022-08-01T09:30:01.637Z,27.33
2022-08-01T09:32:36.359Z,28.01
2022-08-01T09:35:30.409Z,28.53
2022-08-01T09:38:19.867Z,28.93
2022-08-01T09:40:52.605Z,29.03
2022-08-01T09:43:20.629Z,27.53
2022-08-01T09:45:50.359Z,27.93
2022-08-01T09:48:22.643Z,27.44
2022-08-01T09:51:04.556Z,28.87
2022-08-01T09:53:50.930Z,30.17
2022-08-01T09:56:19.756Z,30.84
2022-08-01T09:58:58.318Z,31.63
2022-08-01T10:01:27.572Z,31.93
2022-08-01T10:04:11.409Z,31.22
2022-08-01T10:06:43.538Z,30.43
2022-08-01T10:09:12.328Z,30.08
2022-08-01T10:11:43.533Z,28.61
2022-08-01T10:14:17.721Z,28.31
2022-08-01T10:16:53.854Z,27.82
2022-08-01T10:19:28.734Z,27.99
2022-08-01T10:21:59.871Z,26.82
2022-08-01T10:24:30.661Z,26.59
2022-08-01T10:27:06.118Z,26.10
2022-08-01T10:29:59.186Z,26.36
2022-08-01T10:32:29.949Z,25.95
2022-08-01T10:34:58.031Z,25.65
2022-08-01T10:37:27.887Z,25.41
2022-08-01T10:40:27.101Z,25.52
2022-08-01T10:42:45.813Z,26.28
2022-08-01T10:45:15.827Z,26.05
2022-08-01T10:47:51.010Z,26.70
2022-08-01T10:50:25.953Z,28.80
2022-08-01T10:53:15.282Z,28.27
2022-08-01T10:55:53.279Z,26.52
2022-08-01T10:58:28.040Z,26.81
2022-08-01T11:01:19.785Z,27.87
2022-08-01T11:04:01.348Z,27.84
2022-08-01T11:06:41.307Z,27.03
2022-08-01T11:09:36.283Z,28.65
2022-08-01T11:12:13.603Z,30.74
2022-08-01T11:15:30.293Z,28.33
2022-08-01T11:18:00.568Z,28.17
2022-08-01T11:20:32.108Z,27.69
2022-08-01T11:23:28.560Z,27.04
2022-08-01T11:26:14.772Z,26.23
2022-08-01T11:29:10.903Z,26.57
2022-08-01T11:31:37.375Z,26.83
2022-08-01T11:34:06.259Z,28.16
2022-08-01T11:36:57.544Z,28.07
2022-08-01T11:39:21.491Z,28.48
2022-08-01T11:41:50.814Z,28.28
2022-08-01T11:44:26.600Z,28.20
2022-08-01T11:47:08.732Z,27.49
2022-08-01T11:49:51.420Z,26.76
2022-08-01T11:52:21.447Z,26.29
2022-08-01T11:54:51.228Z,25.82
2022-08-01T11:57:23.000Z,26.43
2022-08-01T12:00:03.560Z,26.74
2022-08-01T12:02:34.925Z,26.65
2022-08-01T12:05:05.215Z,27.05
2022-08-01T12:07:34.966Z,27.63
2022-08-01T12:10:05.498Z,29.75
2022-08-01T12:12:35.691Z,29.62
2022-08-01T12:15:06.415Z,29.50
2022-08-01T12:17:39.452Z,28.37
2022-08-01T12:20:09.267Z,27.69
2022-08-01T12:22:37.388Z,28.06
2022-08-01T12:25:09.698Z,28.36
2022-08-01T12:27:40.206Z,27.66
2022-08-01T12:30:09.594Z,27.28
2022-08-01T12:32:39.251Z,27.79
2022-08-01T12:35:08.486Z,28.26
2022-08-01T12:37:38.055Z,28.14
2022-08-01T12:40:12.310Z,27.53
2022-08-01T12:42:42.532Z,28.01
2022-08-01T12:45:12.622Z,28.18
2022-08-01T12:47:41.222Z,29.83
2022-08-01T12:50:12.272Z,30.26
2022-08-01T12:52:40.359Z,31.78
2022-08-01T12:55:11.402Z,33.55
2022-08-01T12:57:42.346Z,33.74
2022-08-01T13:00:16.883Z,34.61
2022-08-01T13:02:45.911Z,32.33
2022-08-01T13:05:14.578Z,30.08
2022-08-01T13:07:48.456Z,29.27
2022-08-01T13:10:25.705Z,30.41
2022-08-01T13:12:56.086Z,31.13
2022-08-01T13:15:34.829Z,31.76
2022-08-01T13:18:03.973Z,30.50
2022-08-01T13:20:33.796Z,29.66
2022-08-01T13:23:15.693Z,29.11
2022-08-01T13:26:03.208Z,30.30
2022-08-01T13:28:32.700Z,31.60
2022-08-01T13:31:01.921Z,30.22
2022-08-01T13:33:41.732Z,29.62
2022-08-01T13:36:10.104Z,30.21
2022-08-01T13:38:55.245Z,31.10
2022-08-01T13:41:22.765Z,30.03
2022-08-01T13:43:58.806Z,28.57
2022-08-01T13:46:26.989Z,28.88
2022-08-01T13:48:57.266Z,30.19
2022-08-01T13:51:24.871Z,31.00
2022-08-01T13:53:52.355Z,29.11
2022-08-01T13:56:20.915Z,29.73
2022-08-01T13:58:48.567Z,30.00
2022-08-01T14:01:18.312Z,30.11
2022-08-01T14:03:47.228Z,31.44
2022-08-01T14:06:16.759Z,30.86
2022-08-01T14:08:46.029Z,31.58
2022-08-01T14:11:15.030Z,32.62
2022-08-01T14:13:46.715Z,31.76
2022-08-01T14:16:14.505Z,30.90
2022-08-01T14:18:44.496Z,30.29
2022-08-01T14:21:12.349Z,29.91
2022-08-01T14:23:40.108Z,28.59
2022-08-01T14:26:12.104Z,28.90
2022-08-01T14:28:40.443Z,29.83
2022-08-01T14:31:08.566Z,30.73
2022-08-01T14:33:36.710Z,31.48
2022-08-01T14:36:29.507Z,32.58
2022-08-01T14:38:53.656Z,32.97
2022-08-01T14:41:21.173Z,30.51
2022-08-01T14:43:48.694Z,28.88
2022-08-01T14:46:16.201Z,28.95
2022-08-01T14:48:43.874Z,29.54
2022-08-01T14:51:12.717Z,29.83
2022-08-01T14:53:40.413Z,30.13
2022-08-01T14:56:14.806Z,30.51
2022-08-01T14:58:42.364Z,29.78
2022-08-01T15:01:10.010Z,29.72
2022-08-01T15:03:37.606Z,29.34
2022-08-01T15:06:07.206Z,28.83
2022-08-01T15:08:36.261Z,28.34
2022-08-01T15:11:03.751Z,29.06
2022-08-01T15:13:31.248Z,29.39
2022-08-01T15:16:00.032Z,28.84
2022-08-01T15:18:28.120Z,28.63
2022-08-01T15:20:55.791Z,28.30
2022-08-01T15:23:23.462Z,28.53
2022-08-01T15:25:52.319Z,29.00
2022-08-01T15:28:20.770Z,29.53
2022-08-01T15:30:48.276Z,29.15
2022-08-01T15:33:15.794Z,29.66
2022-08-01T15:35:43.512Z,29.67
2022-08-01T15:38:11.075Z,29.30
2022-08-01T15:40:38.579Z,28.85
2022-08-01T15:43:07.435Z,28.59
2022-08-01T15:45:47.235Z,27.90
2022-08-01T15:48:15.324Z,28.65
2022-08-01T15:50:42.995Z,28.66
2022-08-01T15:53:10.727Z,28.60
2022-08-01T15:55:38.699Z,28.01
2022-08-01T15:58:08.039Z,28.24
2022-08-01T16:00:39.565Z,28.19
2022-08-01T16:03:10.048Z,28.00
2022-08-01T16:05:43.182Z,28.00
2022-08-01T16:08:11.260Z,28.06
2022-08-01T16:10:38.762Z,28.29
2022-08-01T16:13:08.188Z,28.04
2022-08-01T16:15:37.523Z,28.12
2022-08-01T16:18:06.205Z,28.12
2022-08-01T16:20:34.029Z,27.87
2022-08-01T16:23:01.684Z,27.87
2022-08-01T16:25:29.243Z,27.79
2022-08-01T16:27:56.758Z,27.68
2022-08-01T16:30:25.784Z,27.70
2022-08-01T16:32:59.291Z,27.41
2022-08-01T16:35:35.966Z,27.26
2022-08-01T16:38:04.041Z,27.36
2022-08-01T16:40:31.503Z,27.17
2022-08-01T16:43:14.186Z,27.29
2022-08-01T16:45:43.338Z,27.78
2022-08-01T16:48:12.348Z,28.15
2022-08-01T16:50:40.399Z,27.98
2022-08-01T16:53:08.059Z,27.45
2022-08-01T16:55:50.122Z,27.74
2022-08-01T16:58:27.378Z,27.63
2022-08-01T17:01:52.631Z,27.95
2022-08-01T17:03:46.823Z,27.66
2022-08-01T17:06:20.238Z,27.57
2022-08-01T17:08:49.925Z,27.25
2022-08-01T17:11:17.527Z,27.49
2022-08-01T17:13:45.539Z,27.37
2022-08-01T17:16:14.359Z,27.31
2022-08-01T17:18:41.841Z,27.35
2022-08-01T17:21:09.666Z,27.43
2022-08-01T17:23:37.499Z,26.94
2022-08-01T17:26:05.256Z,26.82
2022-08-01T17:28:32.778Z,26.43
2022-08-01T17:31:00.412Z,26.38
2022-08-01T17:33:44.652Z,26.54
2022-08-01T17:36:14.573Z,26.37
2022-08-01T17:38:42.062Z,26.12
2022-08-01T17:41:09.697Z,26.15
2022-08-01T17:43:37.172Z,26.19
2022-08-01T17:46:04.691Z,26.05
2022-08-01T17:48:33.496Z,26.05
2022-08-01T17:51:00.980Z,26.30
2022-08-01T17:53:28.616Z,26.39
2022-08-01T17:55:58.486Z,26.37
2022-08-01T17:58:49.739Z,26.20
2022-08-01T18:01:14.346Z,26.25
2022-08-01T18:03:43.240Z,26.30
2022-08-01T18:06:13.448Z,26.39
2022-08-01T18:08:42.014Z,26.33
2022-08-01T18:11:09.814Z,26.15
2022-08-01T18:13:40.652Z,25.95
2022-08-01T18:16:09.227Z,25.79
2022-08-01T18:18:38.479Z,25.79
2022-08-01T18:21:08.053Z,25.63
2022-08-01T18:23:35.916Z,25.63
2022-08-01T18:26:06.725Z,25.35
2022-08-01T18:28:41.789Z,25.35
2022-08-01T18:31:16.408Z,25.52
2022-08-01T18:33:44.002Z,25.35
2022-08-01T18:36:17.791Z,25.67
2022-08-01T18:39:01.983Z,25.76
2022-08-01T18:41:32.259Z,25.94
2022-08-01T18:44:05.314Z,26.05
2022-08-01T18:46:36.802Z,25.88
2022-08-01T18:49:04.513Z,25.72
2022-08-01T18:51:33.424Z,25.77
2022-08-01T18:54:00.966Z,26.11
2022-08-01T18:56:28.471Z,25.80
2022-08-01T18:58:56.132Z,25.76
2022-08-01T19:01:23.803Z,25.66
2022-08-01T19:03:51.366Z,25.61
2022-08-01T19:06:18.903Z,25.54
2022-08-01T19:08:47.724Z,25.53
2022-08-01T19:11:15.237Z,25.56
2022-08-01T19:13:42.763Z,25.43
2022-08-01T19:16:10.309Z,25.49
2022-08-01T19:18:40.095Z,25.58
2022-08-01T19:21:07.630Z,25.41
2022-08-01T19:23:53.308Z,25.56
2022-08-01T19:26:25.780Z,25.32
2022-08-01T19:28:57.097Z,25.21
2022-08-01T19:31:27.847Z,24.80
2022-08-01T19:33:56.673Z,25.15
2022-08-01T19:36:24.806Z,25.48
2022-08-01T19:38:52.399Z,25.48
2022-08-01T19:41:20.256Z,25.53
2022-08-01T19:43:51.129Z,26.23
2022-08-01T19:46:18.881Z,26.28
2022-08-01T19:48:53.700Z,26.50
2022-08-01T19:51:27.611Z,26.59
2022-08-01T19:54:05.576Z,26.68
2022-08-01T19:56:38.113Z,26.59
2022-08-01T19:59:08.909Z,26.56
2022-08-01T20:01:37.730Z,26.56
2022-08-01T20:04:05.858Z,26.45
2022-08-01T20:06:34.801Z,26.36
2022-08-01T20:09:03.746Z,26.35
2022-08-01T20:11:31.506Z,26.31
2022-08-01T20:14:00.416Z,25.65
2022-08-01T20:16:30.104Z,25.19
2022-08-01T20:18:57.907Z,25.17
2022-08-01T20:21:27.062Z,25.59
2022-08-01T20:24:02.656Z,25.80
2022-08-01T20:26:32.333Z,25.86
2022-08-01T20:29:01.454Z,25.87
2022-08-01T20:31:43.148Z,25.80
2022-08-01T20:34:15.897Z,25.66
2022-08-01T20:36:54.417Z,25.81
2022-08-01T20:39:24.605Z,25.46
2022-08-01T20:41:59.573Z,25.44
2022-08-01T20:44:31.376Z,25.44
2022-08-01T20:47:01.067Z,25.32
2022-08-01T20:49:29.198Z,25.18
2022-08-01T20:51:56.761Z,25.13
2022-08-01T20:54:24.459Z,24.68
2022-08-01T20:56:59.197Z,24.71
2022-08-01T20:59:56.109Z,24.54
2022-08-01T21:02:32.823Z,24.52
2022-08-01T21:05:06.759Z,24.39
2022-08-01T21:07:38.741Z,24.25
2022-08-01T21:10:08.767Z,24.08
2022-08-01T21:12:44.773Z,23.91
2022-08-01T21:15:16.202Z,23.83
2022-08-01T21:17:54.028Z,23.83
2022-08-01T21:20:23.478Z,23.81
2022-08-01T21:23:05.604Z,23.80
2022-08-01T21:25:35.291Z,23.83
2022-08-01T21:28:03.779Z,23.96
2022-08-01T21:30:34.040Z,23.78
2022-08-01T21:33:05.698Z,23.66
2022-08-01T21:35:33.939Z,23.52
2022-08-01T21:38:03.311Z,23.61
2022-08-01T21:40:33.012Z,23.82
2022-08-01T21:43:02.142Z,23.88
2022-08-01T21:45:31.388Z,23.90
2022-08-01T21:48:00.393Z,23.43
2022-08-01T21:50:31.728Z,23.34
2022-08-01T21:53:11.636Z,23.33
2022-08-01T21:55:52.341Z,23.25
2022-08-01T21:58:33.265Z,23.22
2022-08-01T22:01:08.000Z,23.01
2022-08-01T22:03:43.257Z,22.54
2022-08-01T22:06:14.451Z,22.56
2022-08-01T22:08:49.514Z,22.68
2022-08-01T22:11:20.884Z,22.77
2022-08-01T22:13:49.542Z,22.75
2022-08-01T22:16:17.251Z,22.61
2022-08-01T22:18:45.457Z,22.63
2022-08-01T22:21:14.392Z,22.71
2022-08-01T22:23:42.664Z,22.60
2022-08-01T22:26:12.264Z,22.25
2022-08-01T22:28:41.312Z,22.42
2022-08-01T22:31:08.889Z,22.31
2022-08-01T22:33:37.323Z,22.04
2022-08-01T22:36:05.903Z,22.08
2022-08-01T22:38:35.187Z,22.17
2022-08-01T22:41:05.062Z,22.18
2022-08-01T22:43:42.745Z,22.15
2022-08-01T22:46:22.138Z,22.02
2022-08-01T22:48:53.732Z,21.92
2022-08-01T22:51:32.052Z,21.71
2022-08-01T22:54:06.198Z,21.80
2022-08-01T22:56:38.393Z,21.73
2022-08-01T22:59:10.287Z,21.62
2022-08-01T23:01:42.593Z,21.56
2022-08-01T23:04:29.488Z,21.45
2022-08-01T23:07:05.234Z,21.50
2022-08-01T23:09:39.302Z,21.51
2022-08-01T23:12:23.448Z,21.47
2022-08-01T23:14:52.203Z,21.38
2022-08-01T23:17:26.386Z,21.27
2022-08-01T23:19:57.143Z,21.28
2022-08-01T23:22:28.398Z,21.27
2022-08-01T23:25:03.474Z,21.08
2022-08-01T23:27:51.884Z,20.98
2022-08-01T23:30:24.868Z,20.78
2022-08-01T23:32:52.371Z,20.50
2022-08-01T23:35:20.351Z,20.60
2022-08-01T23:37:48.055Z,19.53
2022-08-01T23:40:16.929Z,19.27
2022-08-01T23:42:44.486Z,19.41
2022-08-01T23:45:12.380Z,19.90
2022-08-01T23:47:39.930Z,19.95
2022-08-01T23:50:08.560Z,20.28
2022-08-01T23:52:48.319Z,20.73
2022-08-01T23:55:19.003Z,21.01
2022-08-01T23:57:46.505Z,20.55
